createdAt,value
2022-12-11T00:01:18.040Z,73.40
2022-12-11T00:03:46.871Z,71.55
2022-12-11T00:06:15.977Z,75.53
2022-12-11T00:08:43.173Z,71.82
2022-12-11T00:11:12.513Z,71.22
2022-12-11T00:13:39.424Z,74.18
2022-12-11T00:16:06.537Z,71.97
2022-12-11T00:18:33.524Z,70.68
2022-12-11T00:21:13.009Z,68.15
2022-12-11T00:23:39.935Z,65.25
2022-12-11T00:26:09.579Z,63.63
2022-12-11T00:28:36.842Z,63.83
2022-12-11T00:31:08.174Z,64.78
2022-12-11T00:33:35.303Z,65.32
2022-12-11T00:36:02.188Z,65.07
2022-12-11T00:38:29.298Z,66.03
2022-12-11T00:40:59.940Z,68.22
2022-12-11T00:43:26.998Z,51.87
2022-12-11T00:45:53.970Z,64.18
2022-12-11T00:48:21.028Z,66.82
2022-12-11T00:50:48.151Z,67.10
2022-12-11T00:53:15.541Z,74.50
2022-12-11T00:55:43.561Z,74.10
2022-12-11T00:58:11.366Z,74.88
2022-12-11T01:00:39.256Z,72.20
2022-12-11T01:03:07.109Z,70.55
2022-12-11T01:05:46.495Z,68.50
2022-12-11T01:08:18.033Z,70.68
2022-12-11T01:10:47.004Z,68.78
2022-12-11T01:13:14.208Z,75.43
2022-12-11T01:15:43.750Z,76.32
2022-12-11T01:18:12.748Z,75.38
2022-12-11T01:20:41.250Z,72.93
2022-12-11T01:23:08.540Z,74.35
2022-12-11T01:25:38.264Z,70.78
2022-12-11T01:30:33.764Z,69.55
2022-12-11T01:33:01.326Z,63.47
2022-12-11T01:35:28.686Z,63.63
2022-12-11T01:37:55.988Z,64.10
2022-12-11T01:40:23.093Z,69.90
2022-12-11T01:42:51.418Z,71.75
2022-12-11T01:45:39.802Z,70.90
2022-12-11T01:48:10.389Z,73.68
2022-12-11T01:50:45.910Z,73.45
2022-12-11T01:53:17.875Z,73.07
2022-12-11T01:55:46.909Z,75.88
2022-12-11T01:58:14.270Z,72.70
2022-12-11T02:00:41.215Z,71.20
2022-12-11T02:03:08.653Z,71.70
2022-12-11T02:05:35.671Z,71.50
2022-12-11T02:08:03.460Z,70.38
2022-12-11T02:11:06.625Z,70.32
2022-12-11T02:13:39.399Z,67.32
2022-12-11T02:16:09.086Z,68.95
2022-12-11T02:18:44.762Z,70.68
2022-12-11T02:21:21.078Z,71.45
2022-12-11T02:24:05.444Z,67.05
2022-12-11T02:26:51.293Z,69.80
2022-12-11T02:29:21.355Z,70.43
2022-12-11T02:31:55.107Z,69.95
2022-12-11T02:34:29.187Z,71.85
2022-12-11T02:36:59.872Z,72.63
2022-12-11T02:39:27.995Z,55.30
2022-12-11T02:41:55.986Z,68.00
2022-12-11T02:44:26.229Z,67.80
2022-12-11T02:46:54.260Z,71.07
2022-12-11T02:49:22.238Z,68.05
2022-12-11T02:51:49.490Z,70.65
2022-12-11T02:54:20.906Z,69.63
2022-12-11T02:56:55.065Z,71.43
2022-12-11T02:59:44.408Z,70.25
2022-12-11T03:02:13.426Z,68.43
2022-12-11T03:04:41.222Z,65.90
2022-12-11T03:07:15.953Z,71.15
2022-12-11T03:09:44.820Z,70.00
2022-12-11T03:12:16.741Z,68.68
2022-12-11T03:14:44.042Z,66.53
2022-12-11T03:17:20.373Z,65.80
2022-12-11T03:20:17.913Z,66.13
2022-12-11T03:22:56.067Z,63.25
2022-12-11T03:25:26.833Z,51.40
2022-12-11T03:28:09.649Z,49.00
2022-12-11T03:30:37.428Z,34.50
2022-12-11T03:33:12.170Z,65.18
2022-12-11T03:35:45.327Z,63.20
2022-12-11T03:38:23.208Z,58.70
2022-12-11T03:40:53.371Z,50.28
2022-12-11T03:43:21.991Z,49.35
2022-12-11T03:45:50.107Z,40.72
2022-12-11T03:48:18.112Z,46.33
2022-12-11T03:50:46.615Z,45.25
2022-12-11T03:53:13.719Z,51.00
2022-12-11T03:55:42.450Z,49.20
2022-12-11T03:58:09.423Z,45.60
2022-12-11T04:00:36.615Z,47.00
2022-12-11T04:03:17.931Z,46.17
2022-12-11T04:05:47.587Z,42.78
2022-12-11T04:08:15.177Z,46.15
2022-12-11T04:10:42.494Z,46.47
2022-12-11T04:13:10.364Z,44.45
2022-12-11T04:15:38.111Z,45.17
2022-12-11T04:18:23.994Z,44.03
2022-12-11T04:21:12.514Z,46.13
2022-12-11T04:23:58.170Z,47.80
2022-12-11T04:26:25.833Z,47.53
2022-12-11T04:28:52.716Z,47.30
2022-12-11T04:31:22.409Z,46.85
2022-12-11T04:33:49.536Z,49.08
2022-12-11T04:36:16.898Z,46.80
2022-12-11T04:38:43.784Z,48.60
2022-12-11T04:41:13.693Z,47.53
2022-12-11T04:43:40.912Z,52.40
2022-12-11T04:46:14.992Z,51.63
2022-12-11T04:48:42.631Z,51.90
2022-12-11T04:51:10.447Z,53.25
2022-12-11T04:53:38.159Z,55.03
2022-12-11T04:56:07.371Z,54.17
2022-12-11T04:58:36.022Z,53.10
2022-12-11T05:01:22.775Z,52.85
2022-12-11T05:03:50.468Z,51.63
2022-12-11T05:06:17.533Z,56.63
2022-12-11T05:08:45.465Z,55.05
2022-12-11T05:11:15.042Z,55.72
2022-12-11T05:13:42.625Z,52.60
2022-12-11T05:16:11.631Z,51.53
2022-12-11T05:18:38.862Z,49.78
2022-12-11T05:21:08.047Z,48.78
2022-12-11T05:23:35.485Z,47.53
2022-12-11T05:26:15.230Z,48.45
2022-12-11T05:28:42.379Z,47.70
2022-12-11T05:31:14.105Z,50.88
2022-12-11T05:33:41.899Z,50.55
2022-12-11T05:36:09.580Z,50.70
2022-12-11T05:38:36.452Z,51.85
2022-12-11T05:41:06.284Z,50.75
2022-12-11T05:43:34.803Z,47.00
2022-12-11T05:46:10.549Z,43.00
2022-12-11T05:48:38.502Z,43.03
2022-12-11T05:51:06.799Z,40.72
2022-12-11T05:53:33.851Z,38.30
2022-12-11T05:56:08.649Z,38.50
2022-12-11T05:58:35.992Z,39.30
2022-12-11T06:01:07.041Z,39.63
2022-12-11T06:03:34.159Z,38.50
2022-12-11T06:06:05.349Z,30.77
2022-12-11T06:08:33.057Z,31.85
2022-12-11T06:11:00.217Z,28.55
2022-12-11T06:13:27.339Z,27.90
2022-12-11T06:15:54.430Z,24.77
2022-12-11T06:18:21.703Z,20.00
2022-12-11T06:20:48.840Z,34.00
2022-12-11T06:23:15.795Z,32.97
2022-12-11T06:25:42.762Z,31.42
2022-12-11T06:28:09.785Z,31.00
2022-12-11T06:30:38.594Z,21.35
2022-12-11T06:33:06.968Z,20.23
2022-12-11T06:35:38.725Z,18.95
2022-12-11T06:38:09.151Z,17.77
2022-12-11T06:40:36.243Z,16.85
2022-12-11T06:43:04.095Z,16.33
2022-12-11T06:45:31.252Z,15.73
2022-12-11T06:47:59.180Z,11.88
2022-12-11T06:50:26.488Z,12.80
2022-12-11T06:52:53.475Z,12.23
2022-12-11T06:55:20.504Z,11.38
2022-12-11T06:57:47.447Z,10.23
2022-12-11T07:00:15.173Z,8.93
2022-12-11T07:02:42.175Z,9.07
2022-12-11T07:05:09.729Z,9.38
2022-12-11T07:07:36.901Z,8.60
2022-12-11T07:10:08.227Z,9.23
2022-12-11T07:15:02.981Z,7.47
2022-12-11T07:17:30.424Z,7.63
2022-12-11T07:19:57.677Z,7.47
2022-12-11T07:22:24.761Z,7.65
2022-12-11T07:24:51.712Z,7.30
2022-12-11T07:27:19.024Z,7.55
2022-12-11T07:29:46.247Z,7.78
2022-12-11T07:32:13.382Z,7.32
2022-12-11T07:34:40.691Z,7.40
2022-12-11T07:37:08.060Z,7.70
2022-12-11T07:39:35.220Z,7.57
2022-12-11T07:42:02.412Z,7.93
2022-12-11T07:44:30.021Z,8.20
2022-12-11T07:46:58.056Z,8.10
2022-12-11T07:49:24.980Z,9.95
2022-12-11T07:51:52.079Z,9.43
2022-12-11T07:54:19.083Z,9.73
2022-12-11T07:56:53.181Z,10.18
2022-12-11T07:59:22.666Z,7.88
2022-12-11T08:01:52.409Z,8.27
2022-12-11T08:04:20.321Z,7.78
2022-12-11T08:06:49.379Z,7.07
2022-12-11T08:09:21.112Z,6.60
2022-12-11T08:11:54.072Z,6.13
2022-12-11T08:14:22.508Z,6.38
2022-12-11T08:16:50.738Z,6.82
2022-12-11T08:19:18.289Z,5.82
2022-12-11T08:21:45.491Z,5.68
2022-12-11T08:24:12.590Z,5.35
2022-12-11T08:26:40.813Z,5.00
2022-12-11T08:29:08.422Z,4.60
2022-12-11T08:31:35.577Z,5.20
2022-12-11T08:34:02.782Z,5.28
2022-12-11T08:36:29.858Z,4.68
2022-12-11T08:38:57.310Z,4.53
2022-12-11T08:41:29.511Z,3.38
2022-12-11T08:43:58.182Z,4.50
2022-12-11T08:46:36.737Z,4.28
2022-12-11T08:49:16.991Z,4.38
2022-12-11T08:51:44.662Z,4.68
2022-12-11T09:01:55.723Z,4.93
2022-12-11T09:04:23.255Z,4.15
2022-12-11T09:06:50.372Z,4.18
2022-12-11T09:09:17.361Z,2.83
2022-12-11T09:11:44.336Z,3.45
2022-12-11T09:14:11.293Z,3.85
2022-12-11T09:16:40.820Z,6.65
2022-12-11T09:19:12.653Z,6.15
2022-12-11T09:21:39.903Z,4.50
2022-12-11T09:24:07.193Z,6.15
2022-12-11T09:26:34.203Z,7.85
2022-12-11T09:29:03.814Z,6.43
2022-12-11T09:31:33.263Z,5.70
2022-12-11T09:34:05.989Z,6.53
2022-12-11T09:36:33.354Z,7.32
2022-12-11T09:39:02.128Z,6.60
2022-12-11T09:41:50.735Z,7.55
2022-12-11T09:44:34.935Z,7.45
2022-12-11T09:47:02.058Z,7.55
2022-12-11T09:49:39.358Z,9.23
2022-12-11T09:52:19.022Z,9.55
2022-12-11T09:55:00.943Z,9.95
2022-12-11T10:00:08.943Z,8.20
2022-12-11T10:02:58.398Z,9.07
2022-12-11T10:06:10.291Z,7.07
2022-12-11T10:08:45.538Z,10.25
2022-12-11T10:11:28.322Z,9.43
2022-12-11T10:14:20.434Z,8.65
2022-12-11T10:19:23.306Z,7.57
2022-12-11T10:21:51.553Z,7.47
2022-12-11T10:25:10.015Z,8.77
2022-12-11T10:27:31.868Z,8.60
2022-12-11T10:30:20.574Z,7.65
2022-12-11T10:33:04.375Z,7.78
2022-12-11T10:35:51.712Z,6.97
2022-12-11T10:38:27.600Z,7.78
2022-12-11T10:41:21.354Z,8.10
2022-12-11T10:43:51.864Z,7.32
2022-12-11T10:46:24.819Z,6.90
2022-12-11T10:48:59.449Z,5.65
2022-12-11T10:51:32.428Z,5.22
2022-12-11T10:54:07.324Z,5.55
2022-12-11T10:56:36.281Z,5.65
2022-12-11T10:59:03.776Z,6.20
2022-12-11T11:01:32.397Z,6.35
2022-12-11T11:04:23.114Z,6.95
2022-12-11T11:07:02.027Z,5.78
2022-12-11T11:09:35.665Z,5.85
2022-12-11T11:12:07.798Z,6.78
2022-12-11T11:14:35.151Z,5.85
2022-12-11T11:17:02.182Z,5.10
2022-12-11T11:19:34.160Z,5.75
2022-12-11T11:22:07.059Z,6.03
2022-12-11T11:24:41.180Z,4.75
2022-12-11T11:27:14.320Z,5.45
2022-12-11T11:29:41.841Z,5.25
2022-12-11T11:32:24.043Z,4.75
2022-12-11T11:34:51.180Z,3.90
2022-12-11T11:37:36.403Z,4.15
2022-12-11T11:40:15.205Z,4.47
2022-12-11T11:43:38.200Z,3.95
2022-12-11T11:46:22.374Z,3.58
2022-12-11T11:49:12.580Z,3.13
2022-12-11T11:52:04.022Z,3.35
2022-12-11T11:54:36.933Z,3.20
2022-12-11T11:57:29.862Z,3.60
2022-12-11T12:00:09.728Z,3.20
2022-12-11T12:02:41.051Z,3.50
2022-12-11T12:05:13.383Z,3.10
2022-12-11T12:08:00.172Z,2.40
2022-12-11T12:10:48.397Z,3.15
2022-12-11T12:14:17.603Z,2.78
2022-12-11T12:17:08.011Z,2.53
2022-12-11T12:19:59.875Z,3.67
2022-12-11T12:22:51.604Z,3.22
2022-12-11T12:25:26.215Z,2.80
2022-12-11T12:27:58.611Z,1.98
2022-12-11T12:30:27.315Z,2.75
2022-12-11T12:33:07.710Z,2.67
2022-12-11T12:35:54.668Z,2.50
2022-12-11T12:38:38.175Z,2.90
2022-12-11T12:41:25.260Z,2.25
2022-12-11T12:44:00.820Z,2.05
2022-12-11T12:46:34.314Z,3.70
2022-12-11T12:49:01.884Z,3.67
2022-12-11T12:51:29.172Z,2.95
2022-12-11T12:53:59.776Z,3.00
2022-12-11T12:56:28.285Z,2.35
2022-12-11T12:58:55.316Z,2.78
2022-12-11T13:01:24.689Z,3.72
2022-12-11T13:04:01.751Z,3.13
2022-12-11T13:06:36.213Z,5.72
2022-12-11T13:09:23.847Z,3.38
2022-12-11T13:11:57.900Z,3.88
2022-12-11T13:14:28.598Z,3.30
2022-12-11T13:17:20.537Z,2.55
2022-12-11T13:19:49.661Z,2.63
2022-12-11T13:22:16.575Z,1.65
2022-12-11T13:24:50.575Z,2.10
2022-12-11T13:27:38.454Z,2.20
2022-12-11T13:30:26.238Z,2.80
2022-12-11T13:33:07.034Z,2.72
2022-12-11T13:35:35.460Z,5.45
2022-12-11T13:38:13.263Z,2.85
2022-12-11T13:40:43.226Z,3.22
2022-12-11T13:43:22.632Z,3.58
2022-12-11T13:45:55.352Z,3.10
2022-12-11T13:48:34.006Z,2.45
2022-12-11T13:51:02.101Z,2.90
2022-12-11T13:53:29.619Z,3.63
2022-12-11T13:55:57.995Z,4.60
2022-12-11T13:58:25.108Z,4.13
2022-12-11T14:01:05.039Z,4.28
2022-12-11T14:03:32.536Z,4.55
2022-12-11T14:06:00.569Z,4.38
2022-12-11T14:08:43.246Z,3.22
2022-12-11T14:11:20.944Z,2.65
2022-12-11T14:13:48.094Z,3.78
2022-12-11T14:16:21.199Z,6.20
2022-12-11T14:18:50.435Z,3.80
2022-12-11T14:21:23.050Z,2.72
2022-12-11T14:23:55.787Z,3.17
2022-12-11T14:26:31.741Z,2.65
2022-12-11T14:28:58.786Z,2.00
2022-12-11T14:31:37.363Z,3.35
2022-12-11T14:34:07.663Z,3.83
2022-12-11T14:36:35.610Z,3.90
2022-12-11T14:39:07.238Z,3.88
2022-12-11T14:41:45.179Z,4.80
2022-12-11T14:44:15.932Z,4.00
2022-12-11T14:46:55.063Z,5.78
2022-12-11T14:49:47.567Z,4.60
2022-12-11T14:52:20.730Z,5.47
2022-12-11T14:54:54.412Z,4.72
2022-12-11T14:57:28.124Z,5.60
2022-12-11T14:59:55.530Z,6.10
2022-12-11T15:02:35.070Z,5.50
2022-12-11T15:05:22.337Z,5.43
2022-12-11T15:08:00.952Z,6.13
2022-12-11T15:10:57.316Z,6.75
2022-12-11T15:13:24.731Z,5.32
2022-12-11T15:15:52.225Z,4.93
2022-12-11T15:18:24.501Z,4.20
2022-12-11T15:20:53.670Z,5.00
2022-12-11T15:23:20.819Z,5.03
2022-12-11T15:25:59.085Z,3.72
2022-12-11T15:28:37.473Z,3.72
2022-12-11T15:31:07.707Z,4.45
2022-12-11T15:33:46.130Z,4.60
2022-12-11T15:36:31.493Z,5.05
2022-12-11T15:38:58.763Z,5.05
2022-12-11T15:41:25.978Z,4.85
2022-12-11T15:43:58.556Z,5.32
2022-12-11T15:46:26.174Z,4.93
2022-12-11T15:48:53.378Z,5.85
2022-12-11T15:51:20.459Z,4.47
2022-12-11T15:53:47.652Z,3.92
2022-12-11T15:56:18.160Z,4.07
2022-12-11T15:58:47.339Z,4.30
2022-12-11T16:01:14.692Z,4.40
2022-12-11T16:03:42.162Z,3.60
2022-12-11T16:06:12.731Z,3.45
2022-12-11T16:08:39.803Z,3.42
2022-12-11T16:11:07.013Z,3.78
2022-12-11T16:13:34.219Z,3.90
2022-12-11T16:16:01.728Z,4.30
2022-12-11T16:18:28.964Z,3.47
2022-12-11T16:20:56.336Z,4.45
2022-12-11T16:23:25.471Z,3.05
2022-12-11T16:25:54.189Z,4.13
2022-12-11T16:28:21.353Z,3.20
2022-12-11T16:30:48.826Z,3.38
2022-12-11T16:33:15.995Z,3.03
2022-12-11T16:35:43.220Z,2.72
2022-12-11T16:38:11.143Z,2.65
2022-12-11T16:40:38.614Z,2.90
2022-12-11T16:43:06.094Z,2.95
2022-12-11T16:45:34.015Z,3.20
2022-12-11T16:48:03.874Z,3.20
2022-12-11T16:50:32.297Z,4.13
2022-12-11T16:53:00.273Z,4.00
2022-12-11T16:55:27.256Z,5.28
2022-12-11T16:57:55.336Z,4.07
2022-12-11T17:00:22.698Z,4.38
2022-12-11T17:02:50.067Z,3.88
2022-12-11T17:05:17.685Z,4.20
2022-12-11T17:07:45.254Z,4.10
2022-12-11T17:10:12.348Z,3.38
2022-12-11T17:12:39.560Z,4.72
2022-12-11T17:15:07.399Z,4.20
2022-12-11T17:17:34.706Z,4.90
2022-12-11T17:20:02.157Z,4.65
2022-12-11T17:22:29.132Z,4.22
2022-12-11T17:24:56.260Z,5.95
2022-12-11T17:27:23.295Z,5.38
2022-12-11T17:29:51.803Z,5.72
2022-12-11T17:32:20.098Z,6.57
2022-12-11T17:34:49.707Z,5.00
2022-12-11T17:37:18.011Z,5.20
2022-12-11T17:39:45.289Z,5.10
2022-12-11T17:42:12.298Z,5.40
2022-12-11T17:44:39.394Z,6.30
2022-12-11T17:47:11.107Z,5.60
2022-12-11T17:49:40.607Z,5.10
2022-12-11T17:52:08.023Z,6.03
2022-12-11T17:54:35.272Z,6.20
2022-12-11T17:57:02.670Z,6.30
2022-12-11T17:59:29.565Z,6.32
2022-12-11T18:01:56.564Z,5.97
2022-12-11T18:04:24.131Z,5.28
2022-12-11T18:06:51.643Z,5.03
2022-12-11T18:09:19.141Z,4.68
2022-12-11T18:11:46.410Z,4.55
2022-12-11T18:14:17.075Z,4.28
2022-12-11T18:16:45.015Z,3.97
2022-12-11T18:19:12.173Z,3.80
2022-12-11T18:21:42.930Z,3.08
2022-12-11T18:24:10.701Z,3.60
2022-12-11T18:26:38.208Z,3.05
2022-12-11T18:29:05.550Z,3.78
2022-12-11T18:31:35.360Z,4.00
2022-12-11T18:34:06.496Z,3.83
2022-12-11T18:36:35.000Z,4.03
2022-12-11T18:39:01.925Z,3.97
2022-12-11T18:41:32.243Z,4.75
2022-12-11T18:44:09.288Z,5.13
2022-12-11T18:46:37.177Z,5.10
2022-12-11T18:49:04.368Z,4.70
2022-12-11T18:51:31.435Z,4.63
2022-12-11T18:53:58.803Z,4.68
2022-12-11T18:56:25.752Z,4.03
2022-12-11T18:58:52.849Z,4.88
2022-12-11T19:01:22.850Z,4.68
2022-12-11T19:03:51.293Z,4.35
2022-12-11T19:06:20.841Z,5.00
2022-12-11T19:08:48.271Z,4.35
2022-12-11T19:11:20.624Z,4.13
2022-12-11T19:13:48.610Z,4.03
2022-12-11T19:16:24.390Z,3.42
2022-12-11T19:18:51.808Z,4.72
2022-12-11T19:21:19.599Z,3.80
2022-12-11T19:23:47.081Z,3.05
2022-12-11T19:26:17.490Z,3.83
2022-12-11T19:28:44.891Z,4.38
2022-12-11T19:31:13.921Z,3.70
2022-12-11T19:33:41.850Z,3.50
2022-12-11T19:36:13.775Z,3.17
2022-12-11T19:38:42.286Z,3.10
2022-12-11T19:41:21.753Z,4.05
2022-12-11T19:43:50.114Z,3.17
2022-12-11T19:46:18.041Z,3.00
2022-12-11T19:48:45.219Z,2.85
2022-12-11T19:51:18.410Z,2.80
2022-12-11T19:53:46.815Z,3.60
2022-12-11T19:56:14.892Z,3.45
2022-12-11T19:58:42.379Z,3.03
2022-12-11T20:01:10.271Z,3.20
2022-12-11T20:03:38.138Z,2.95
2022-12-11T20:06:08.228Z,2.75
2022-12-11T20:08:44.539Z,2.40
2022-12-11T20:11:17.594Z,2.67
2022-12-11T20:13:46.946Z,2.63
2022-12-11T20:16:14.705Z,2.70
2022-12-11T20:18:42.719Z,2.83
2022-12-11T20:21:13.110Z,2.80
2022-12-11T20:23:42.243Z,3.00
2022-12-11T20:26:22.514Z,2.25
2022-12-11T20:28:53.526Z,2.60
2022-12-11T20:31:26.114Z,2.58
2022-12-11T20:33:54.378Z,2.40
2022-12-11T20:36:23.260Z,2.65
2022-12-11T20:38:51.083Z,2.40
2022-12-11T20:41:21.421Z,2.35
2022-12-11T20:43:49.610Z,2.13
2022-12-11T20:46:18.183Z,2.50
2022-12-11T20:48:46.015Z,2.53
2022-12-11T20:51:20.869Z,2.63
2022-12-11T20:53:57.939Z,2.03
2022-12-11T20:56:29.610Z,2.60
2022-12-11T20:58:58.152Z,2.08
2022-12-11T21:01:28.010Z,2.42
2022-12-11T21:03:55.648Z,3.03
2022-12-11T21:06:31.909Z,2.85
2022-12-11T21:09:00.995Z,3.10
2022-12-11T21:11:29.321Z,2.90
2022-12-11T21:13:56.870Z,2.17
2022-12-11T21:16:24.631Z,2.60
2022-12-11T21:18:52.139Z,2.90
2022-12-11T21:21:20.005Z,2.47
2022-12-11T21:23:47.068Z,2.70
2022-12-11T21:26:14.399Z,2.25
2022-12-11T21:28:41.339Z,2.78
2022-12-11T21:31:11.865Z,2.17
2022-12-11T21:33:38.986Z,2.13
2022-12-11T21:36:07.088Z,2.42
2022-12-11T21:38:34.177Z,1.90
2022-12-11T21:41:09.475Z,2.13
2022-12-11T21:43:40.024Z,1.98
2022-12-11T21:46:16.970Z,2.30
2022-12-11T21:48:44.535Z,2.45
2022-12-11T21:51:24.330Z,2.55
2022-12-11T21:53:52.101Z,2.13
2022-12-11T21:56:22.740Z,2.63
2022-12-11T21:58:51.989Z,2.40
2022-12-11T22:01:23.640Z,2.15
2022-12-11T22:03:52.469Z,2.47
2022-12-11T22:06:19.631Z,2.17
2022-12-11T22:08:49.230Z,2.03
2022-12-11T22:11:21.979Z,1.63
2022-12-11T22:13:49.054Z,2.92
2022-12-11T22:16:16.071Z,2.42
2022-12-11T22:18:43.153Z,2.25
2022-12-11T22:21:10.134Z,1.92
2022-12-11T22:23:41.101Z,1.77
2022-12-11T22:26:09.130Z,2.17
2022-12-11T22:28:36.004Z,2.67
2022-12-11T22:31:04.788Z,2.15
2022-12-11T22:33:31.747Z,2.30
2022-12-11T22:35:59.577Z,2.03
2022-12-11T22:38:26.810Z,2.55
2022-12-11T22:40:54.610Z,2.25
2022-12-11T22:43:21.820Z,2.30
2022-12-11T22:45:49.451Z,2.42
2022-12-11T22:48:16.530Z,1.88
2022-12-11T22:50:44.407Z,2.83
2022-12-11T22:53:11.761Z,2.10
2022-12-11T22:55:40.027Z,1.80
2022-12-11T22:58:07.719Z,2.47
2022-12-11T23:00:35.020Z,2.17
2022-12-11T23:03:02.530Z,2.67
2022-12-11T23:05:29.951Z,1.98
2022-12-11T23:07:57.150Z,2.25
2022-12-11T23:10:24.266Z,2.65
2022-12-11T23:12:51.252Z,2.70
2022-12-11T23:15:18.821Z,2.78
2022-12-11T23:17:45.760Z,2.67
2022-12-11T23:20:12.796Z,2.97
2022-12-11T23:22:39.953Z,3.58
2022-12-11T23:25:07.429Z,3.55
2022-12-11T23:27:34.414Z,2.75
2022-12-11T23:30:01.439Z,2.33
2022-12-11T23:32:28.386Z,3.03
2022-12-11T23:34:55.303Z,3.70
2022-12-11T23:37:22.194Z,3.60
2022-12-11T23:39:49.176Z,2.85
2022-12-11T23:42:16.135Z,2.70
2022-12-11T23:44:43.276Z,2.83
2022-12-11T23:47:10.207Z,3.13
2022-12-11T23:49:37.322Z,3.65
2022-12-11T23:52:04.500Z,3.88
2022-12-11T23:54:31.775Z,4.53
2022-12-11T23:56:58.703Z,4.70
2022-12-11T23:59:25.783Z,4.60
